Time;durP1;ratioP1;P1;durP2;ratioP2;P2;SDS_P1;SDS_P2;PMS_P1;PMS_P2;Temp;Humidity;BMP_temperature;BMP_pressure;BME280_temperature;BME280_humidity;BME280_pressure;Samples;Min_cycle;Max_cycle;Signal;HPM_P1;HPM_P2
2023/01/11 00:02:01;;;;;;;;;;;;;;;10.27;nan;101575.91;5044316;28;19927;-35
2023/01/11 00:04:29;;;;;;;;;;;;;;;10.23;nan;101583.59;5042647;28;19921;-35
2023/01/11 00:06:54;;;;;;;;;;;;;;;10.18;nan;101579.91;5041199;28;19966;-34
2023/01/11 00:09:20;;;;;;;;;;;;;;;10.14;nan;101570.69;5045766;28;20343;-35
2023/01/11 00:11:45;;;;;;;;;;;;;;;10.13;nan;101569.88;5043869;28;19917;-35
2023/01/11 00:14:10;;;;;;;;;;;;;;;10.05;nan;101556.78;5042976;28;19925;-34
2023/01/11 00:16:36;;;;;;;;;;;;;;;10.04;nan;101552.47;5039604;28;19929;-36
2023/01/11 00:19:02;;;;;;;;;;;;;;;10.04;nan;101543.63;5045678;28;19920;-34
2023/01/11 00:21:27;;;;;;;;;;;;;;;9.99;nan;101544.28;5048505;28;19943;-34
2023/01/11 00:23:53;;;;;;;;;;;;;;;9.96;nan;101540.22;5047706;28;20386;-34
2023/01/11 00:26:18;;;;;;;;;;;;;;;9.96;nan;101539.41;5041650;28;21033;-34
2023/01/11 00:28:43;;;;;;;;;;;;;;;9.97;nan;101538.34;5041847;28;20497;-35
2023/01/11 00:31:09;;;;;;;;;;;;;;;9.93;nan;101529.97;5045264;28;19917;-34
2023/01/11 00:33:34;;;;;;;;;;;;;;;9.91;nan;101534.72;5044504;28;19925;-34
2023/01/11 00:35:59;;;;;;;;;;;;;;;9.89;nan;101533.31;5044175;28;19921;-34
2023/01/11 00:38:43;;;;;;;;;;;;;;;9.92;nan;101539.03;5044285;28;20023;-34
2023/01/11 00:49:21;;;;;;;;;;;;;;;9.89;nan;101530.63;5043843;28;19928;-34
2023/01/11 00:51:47;;;;;;;;;;;;;;;9.89;nan;101533.31;5043675;28;19924;-34
2023/01/11 00:54:12;;;;;;;;;;;;;;;9.88;nan;101531.69;5044805;28;19916;-35
2023/01/11 00:56:38;;;;;;;;;;;;;;;9.88;nan;101527.16;5045593;28;19920;-34
2023/01/11 00:59:03;;;;;;;;;;;;;;;9.91;nan;101525.88;5038310;28;19925;-35
2023/01/11 01:01:29;;;;;;;;;;;;;;;9.96;nan;101520.66;5044120;28;19966;-34
2023/01/11 01:03:54;;;;;;;;;;;;;;;9.91;nan;101515.16;5044765;28;19971;-34
2023/01/11 01:06:20;;;;;;;;;;;;;;;9.93;nan;101513.91;5040652;28;19926;-34
2023/01/11 01:08:45;;;;;;;;;;;;;;;9.91;nan;101505.28;5040979;28;20366;-34
2023/01/11 01:11:10;;;;;;;;;;;;;;;9.91;nan;101502.59;5044599;28;19920;-35
2023/01/11 01:16:19;;;;;;;;;;;;;;;9.86;nan;101505.13;5043662;28;20047;-34
2023/01/11 01:18:45;;;;;;;;;;;;;;;9.85;nan;101500.00;5043432;28;20357;-35
2023/01/11 01:21:10;;;;;;;;;;;;;;;9.89;nan;101502.00;5043032;28;20383;-35
2023/01/11 01:23:35;;;;;;;;;;;;;;;9.92;nan;101498.88;5038285;28;19925;-35
2023/01/11 01:26:05;;;;;;;;;;;;;;;9.92;nan;101504.22;5043260;28;19963;-36
2023/01/11 01:28:30;;;;;;;;;;;;;;;9.92;nan;101490.84;5045264;28;20361;-35
2023/01/11 01:30:55;;;;;;;;;;;;;;;9.92;nan;101498.88;5046164;28;20008;-33
2023/01/11 01:33:21;;;;;;;;;;;;;;;9.96;nan;101489.34;5041104;28;20463;-35
2023/01/11 01:35:47;;;;;;;;;;;;;;;9.94;nan;101486.09;5044619;28;19924;-34
2023/01/11 01:38:12;;;;;;;;;;;;;;;9.98;nan;101476.56;5045065;28;20302;-34
2023/01/11 01:40:42;;;;;;;;;;;;;;;9.95;nan;101478.88;5040609;28;19925;-34
2023/01/11 01:43:11;;;;;;;;;;;;;;;9.97;nan;101466.88;5041808;28;20012;-35
2023/01/11 01:45:37;;;;;;;;;;;;;;;9.97;nan;101463.41;5040863;28;19999;-34
2023/01/11 01:48:04;;;;;;;;;;;;;;;9.98;nan;101460.50;5036806;28;20027;-34
2023/01/11 01:50:39;;;;;;;;;;;;;;;10.00;nan;101458.41;5040135;28;19917;-34
2023/01/11 01:53:07;;;;;;;;;;;;;;;9.94;nan;101453.97;5040621;28;20638;-35
2023/01/11 01:55:34;;;;;;;;;;;;;;;9.91;nan;101453.59;5040126;28;19955;-34
2023/01/11 01:58:01;;;;;;;;;;;;;;;9.95;nan;101452.91;5066512;22;20015;-34
2023/01/11 02:00:26;;;;;;;;;;;;;;;9.94;nan;101437.91;5062177;28;20068;-34
2023/01/11 02:02:52;;;;;;;;;;;;;;;9.94;nan;101453.97;5061377;28;19927;-34
2023/01/11 02:05:18;;;;;;;;;;;;;;;9.92;nan;101440.00;5055206;28;19932;-35
2023/01/11 02:07:45;;;;;;;;;;;;;;;9.96;nan;101427.78;5059881;28;19920;-33
2023/01/11 02:10:15;;;;;;;;;;;;;;;9.98;nan;101435.59;5062693;28;20538;-35
2023/01/11 02:12:49;;;;;;;;;;;;;;;9.96;nan;101425.09;5055956;28;20011;-34
2023/01/11 02:15:15;;;;;;;;;;;;;;;9.94;nan;101429.88;5060302;28;20412;-35
2023/01/11 02:17:41;;;;;;;;;;;;;;;9.99;nan;101413.94;5058826;28;19974;-34
2023/01/11 02:20:19;;;;;;;;;;;;;;;10.03;nan;101413.47;5063022;28;19925;-35
2023/01/11 02:22:59;;;;;;;;;;;;;;;10.08;nan;101398.38;5063316;28;19924;-34
2023/01/11 02:25:31;;;;;;;;;;;;;;;10.09;nan;101407.22;5061646;28;19924;-34
2023/01/11 02:28:11;;;;;;;;;;;;;;;10.13;nan;101397.69;5058965;28;20306;-34
2023/01/11 02:30:42;;;;;;;;;;;;;;;10.13;nan;101398.50;5061476;28;19920;-34
2023/01/11 02:33:14;;;;;;;;;;;;;;;10.15;nan;101396.41;5056704;28;20005;-35
2023/01/11 02:35:43;;;;;;;;;;;;;;;10.18;nan;101387.09;5064819;28;20032;-34
2023/01/11 02:38:13;;;;;;;;;;;;;;;10.18;nan;101387.91;5061846;28;19928;-34
2023/01/11 02:40:50;;;;;;;;;;;;;;;10.16;nan;101386.50;5067114;28;19924;-35
2023/01/11 02:46:08;;;;;;;;;;;;;;;10.17;nan;101378.25;5065311;28;19981;-34
2023/01/11 02:48:48;;;;;;;;;;;;;;;10.14;nan;101375.22;5066856;28;20781;-34
2023/01/11 02:51:31;;;;;;;;;;;;;;;10.12;nan;101371.97;5059462;28;19934;-35
2023/01/11 02:54:18;;;;;;;;;;;;;;;10.10;nan;101357.97;5065624;28;19916;-35
2023/01/11 02:56:45;;;;;;;;;;;;;;;10.11;nan;101352.41;5063163;28;19920;-35
2023/01/11 02:59:13;;;;;;;;;;;;;;;10.18;nan;101352.28;5066714;28;20259;-36
2023/01/11 03:01:52;;;;;;;;;;;;;;;10.14;nan;101346.56;5067931;28;19973;-34
2023/01/11 03:04:21;;;;;;;;;;;;;;;10.11;nan;101340.88;5063589;28;20308;-34
2023/01/11 03:06:47;;;;;;;;;;;;;;;10.11;nan;101341.69;5069136;28;19916;-34
2023/01/11 03:09:27;;;;;;;;;;;;;;;10.11;nan;101330.97;5059812;28;20033;-34
2023/01/11 03:14:54;;;;;;;;;;;;;;;10.07;nan;101313.75;5060917;28;19973;-35
2023/01/11 03:17:32;;;;;;;;;;;;;;;10.07;nan;101308.41;5065202;28;19920;-34
2023/01/11 03:20:06;;;;;;;;;;;;;;;10.04;nan;101316.88;5062941;28;19916;-34
2023/01/11 03:22:38;;;;;;;;;;;;;;;10.04;nan;101324.91;5061919;28;19920;-34
2023/01/11 03:25:11;;;;;;;;;;;;;;;10.03;nan;101312.56;5061882;28;19913;-33
2023/01/11 03:27:45;;;;;;;;;;;;;;;10.06;nan;101313.97;5058351;28;19928;-34
2023/01/11 03:30:11;;;;;;;;;;;;;;;9.98;nan;101310.56;5061117;28;19920;-35
2023/01/11 03:32:43;;;;;;;;;;;;;;;9.99;nan;101306.84;5066948;28;19930;-34
2023/01/11 03:35:08;;;;;;;;;;;;;;;10.00;nan;101308.47;5064032;28;19935;-34
2023/01/11 03:37:37;;;;;;;;;;;;;;;10.01;nan;101301.25;5066405;28;19920;-34
2023/01/11 03:40:05;;;;;;;;;;;;;;;10.00;nan;101300.44;5062922;28;19913;-34
2023/01/11 03:42:32;;;;;;;;;;;;;;;10.02;nan;101294.88;5064619;28;20455;-34
2023/01/11 03:44:59;;;;;;;;;;;;;;;10.00;nan;101281.72;5060662;28;19920;-34
2023/01/11 03:47:27;;;;;;;;;;;;;;;10.07;nan;101288.84;5060998;28;19917;-34
2023/01/11 03:50:02;;;;;;;;;;;;;;;10.06;nan;101273.81;5059496;28;20498;-34
2023/01/11 03:52:30;;;;;;;;;;;;;;;10.06;nan;101268.47;5063297;28;20340;-34
2023/01/11 03:54:56;;;;;;;;;;;;;;;10.09;nan;101268.81;5064448;28;19995;-34
2023/01/11 03:57:24;;;;;;;;;;;;;;;10.16;nan;101264.16;5061996;28;20461;-34
2023/01/11 03:59:50;;;;;;;;;;;;;;;10.15;nan;101261.72;5066015;28;19927;-35
2023/01/11 04:02:17;;;;;;;;;;;;;;;10.15;nan;101261.72;5062484;28;20030;-33
2023/01/11 04:04:42;;;;;;;;;;;;;;;10.22;nan;101265.91;5058880;28;19970;-34
2023/01/11 04:07:08;;;;;;;;;;;;;;;10.19;nan;101254.84;5060973;28;19920;-35
2023/01/11 04:09:33;;;;;;;;;;;;;;;10.19;nan;101252.16;5060602;28;20003;-35
2023/01/11 04:11:58;;;;;;;;;;;;;;;10.20;nan;101259.94;5065216;28;20419;-34
2023/01/11 04:14:24;;;;;;;;;;;;;;;10.20;nan;101253.78;5058186;28;20540;-33
2023/01/11 04:16:49;;;;;;;;;;;;;;;10.18;nan;101245.16;5063659;28;20449;-34
2023/01/11 04:19:14;;;;;;;;;;;;;;;10.17;nan;101244.34;5058150;28;19925;-34
2023/01/11 04:21:40;;;;;;;;;;;;;;;10.18;nan;101243.31;5063354;28;19944;-34
2023/01/11 04:24:05;;;;;;;;;;;;;;;10.16;nan;101244.59;5059063;28;19916;-33
2023/01/11 04:26:31;;;;;;;;;;;;;;;10.20;nan;101251.09;5061373;28;19924;-33
2023/01/11 04:28:56;;;;;;;;;;;;;;;10.26;nan;101245.69;5061869;28;19917;-35
2023/01/11 04:31:21;;;;;;;;;;;;;;;10.30;nan;101232.63;5061351;28;19978;-34
2023/01/11 04:33:47;;;;;;;;;;;;;;;10.28;nan;101230.19;5065517;28;19946;-35
2023/01/11 04:36:12;;;;;;;;;;;;;;;10.34;nan;101236.47;5062234;28;20374;-35
2023/01/11 04:38:37;;;;;;;;;;;;;;;10.32;nan;101240.44;5060573;28;20420;-34
2023/01/11 04:43:47;;;;;;;;;;;;;;;10.38;nan;101237.63;5061650;28;19923;-34
2023/01/11 04:46:12;;;;;;;;;;;;;;;10.39;nan;101236.56;5064737;28;20011;-34
2023/01/11 04:48:38;;;;;;;;;;;;;;;10.42;nan;101238.00;5064424;28;19916;-34
2023/01/11 04:51:05;;;;;;;;;;;;;;;10.39;nan;101241.94;5061500;28;19926;-34
2023/01/11 04:53:30;;;;;;;;;;;;;;;10.42;nan;101243.34;5059818;28;20574;-34
2023/01/11 04:55:58;;;;;;;;;;;;;;;10.45;nan;101238.31;5065468;28;19920;-34
2023/01/11 04:58:23;;;;;;;;;;;;;;;10.42;nan;101241.47;5058329;28;19924;-34
2023/01/11 05:00:49;;;;;;;;;;;;;;;10.43;nan;101236.94;5059289;28;19929;-34
2023/01/11 05:03:14;;;;;;;;;;;;;;;10.46;nan;101231.09;5059940;28;19917;-34
2023/01/11 05:05:39;;;;;;;;;;;;;;;10.50;nan;101227.72;5065143;28;19940;-35
2023/01/11 05:08:05;;;;;;;;;;;;;;;10.53;nan;101227.22;5058902;28;19924;-34
2023/01/11 05:10:30;;;;;;;;;;;;;;;10.52;nan;101224.78;5065493;28;19924;-33
2023/01/11 05:12:56;;;;;;;;;;;;;;;10.54;nan;101212.78;5064718;28;19921;-34
2023/01/11 05:15:21;;;;;;;;;;;;;;;10.56;nan;101210.69;5065290;28;19923;-34
2023/01/11 05:17:46;;;;;;;;;;;;;;;10.54;nan;101206.63;5062444;28;20003;-34
2023/01/11 05:20:12;;;;;;;;;;;;;;;10.48;nan;101186.94;5066543;28;20016;-33
2023/01/11 05:22:37;;;;;;;;;;;;;;;10.52;nan;101180.06;5058099;28;19999;-34
2023/01/11 05:25:03;;;;;;;;;;;;;;;10.49;nan;101166.34;5065971;28;19923;-33
2023/01/11 05:27:28;;;;;;;;;;;;;;;10.49;nan;101164.47;5059471;28;19917;-34
2023/01/11 05:29:54;;;;;;;;;;;;;;;10.48;nan;101154.81;5056807;28;19925;-34
2023/01/11 05:32:19;;;;;;;;;;;;;;;10.49;nan;101156.44;5062977;28;19995;-34
2023/01/11 05:34:44;;;;;;;;;;;;;;;10.44;nan;101144.81;5056512;28;19917;-35
2023/01/11 05:37:10;;;;;;;;;;;;;;;10.47;nan;101158.53;5058882;28;19917;-35
2023/01/11 05:39:35;;;;;;;;;;;;;;;10.50;nan;101152.69;5062315;28;19916;-34
2023/01/11 05:42:00;;;;;;;;;;;;;;;10.55;nan;101160.81;5065213;28;19960;-34
2023/01/11 05:47:09;;;;;;;;;;;;;;;10.59;nan;101166.50;5063407;28;19927;-34
2023/01/11 05:49:35;;;;;;;;;;;;;;;10.62;nan;101166.06;5061918;28;19916;-33
2023/01/11 05:52:00;;;;;;;;;;;;;;;10.53;nan;101168.28;5062944;28;19986;-34
2023/01/11 05:54:25;;;;;;;;;;;;;;;10.49;nan;101156.44;5063156;28;19924;-34
2023/01/11 05:56:51;;;;;;;;;;;;;;;10.46;nan;101154.22;5064901;28;19951;-34
2023/01/11 05:59:16;;;;;;;;;;;;;;;10.50;nan;101158.06;5058265;28;19970;-34
2023/01/11 06:01:41;;;;;;;;;;;;;;;10.52;nan;101155.13;5048625;28;19936;-34
2023/01/11 06:04:07;;;;;;;;;;;;;;;10.49;nan;101144.91;5055762;28;19913;-34
2023/01/11 06:06:32;;;;;;;;;;;;;;;10.45;nan;101154.47;5060180;28;20201;-34
2023/01/11 06:08:58;;;;;;;;;;;;;;;10.52;nan;101144.41;5059457;28;20376;-34
2023/01/11 06:11:23;;;;;;;;;;;;;;;10.49;nan;101140.34;5060826;28;20746;-34
2023/01/11 06:13:49;;;;;;;;;;;;;;;10.52;nan;101150.59;5063312;28;19974;-34
2023/01/11 06:16:15;;;;;;;;;;;;;;;10.49;nan;101140.34;5065011;28;20373;-34
2023/01/11 06:18:42;;;;;;;;;;;;;;;10.43;nan;101137.81;5060877;28;19924;-34
2023/01/11 06:21:08;;;;;;;;;;;;;;;10.41;nan;101138.06;5065810;28;20167;-34
2023/01/11 06:23:36;;;;;;;;;;;;;;;10.43;nan;101143.19;5062586;28;19920;-34
2023/01/11 06:26:02;;;;;;;;;;;;;;;10.44;nan;101148.28;5062077;28;19934;-34
2023/01/11 06:28:28;;;;;;;;;;;;;;;10.45;nan;101135.72;5065102;28;20443;-34
2023/01/11 06:30:54;;;;;;;;;;;;;;;10.46;nan;101132.78;5066899;28;19924;-34
2023/01/11 06:33:20;;;;;;;;;;;;;;;10.46;nan;101134.66;5065411;28;19928;-34
2023/01/11 06:35:46;;;;;;;;;;;;;;;10.50;nan;101135.81;5065085;28;19916;-34
2023/01/11 06:38:12;;;;;;;;;;;;;;;10.50;nan;101136.63;5064844;28;20433;-35
2023/01/11 06:40:38;;;;;;;;;;;;;;;10.52;nan;101145.22;5064395;28;20167;-34
2023/01/11 06:43:04;;;;;;;;;;;;;;;10.51;nan;101134.75;5064387;28;20354;-36
2023/01/11 06:45:30;;;;;;;;;;;;;;;10.54;nan;101137.75;5063713;28;20007;-34
2023/01/11 06:47:55;;;;;;;;;;;;;;;10.56;nan;101134.84;5067290;28;20400;-34
2023/01/11 06:50:20;;;;;;;;;;;;;;;10.62;nan;101130.41;5065853;28;19927;-34
2023/01/11 06:52:56;;;;;;;;;;;;;;;10.57;nan;101128.44;5061669;28;19924;-34
2023/01/11 06:55:22;;;;;;;;;;;;;;;10.52;nan;101131.03;5063413;28;20895;-34
2023/01/11 06:57:47;;;;;;;;;;;;;;;10.52;nan;101134.50;5063738;28;19924;-34
2023/01/11 07:00:13;;;;;;;;;;;;;;;10.49;nan;101129.63;5068558;28;20417;-34
2023/01/11 07:02:39;;;;;;;;;;;;;;;10.49;nan;101124.28;5065413;28;20435;-34
2023/01/11 07:05:04;;;;;;;;;;;;;;;10.48;nan;101119.97;5067680;28;19916;-34
2023/01/11 07:07:30;;;;;;;;;;;;;;;10.44;nan;101129.53;5067932;28;20301;-34
2023/01/11 07:09:55;;;;;;;;;;;;;;;10.38;nan;101127.78;5068197;28;19916;-34
2023/01/11 07:12:20;;;;;;;;;;;;;;;10.38;nan;101126.97;5068726;28;19924;-34
2023/01/11 07:14:46;;;;;;;;;;;;;;;10.36;nan;101124.53;5068689;28;19939;-34
2023/01/11 07:17:11;;;;;;;;;;;;;;;10.32;nan;101127.94;5066352;28;19916;-35
2023/01/11 07:19:36;;;;;;;;;;;;;;;10.36;nan;101135.25;5068010;28;19924;-34
2023/01/11 07:22:02;;;;;;;;;;;;;;;10.36;nan;101129.09;5069031;28;19946;-34
2023/01/11 07:24:27;;;;;;;;;;;;;;;10.37;nan;101131.53;5068224;28;19999;-34
2023/01/11 07:26:54;;;;;;;;;;;;;;;10.36;nan;101132.56;5068139;28;19923;-34
2023/01/11 07:29:19;;;;;;;;;;;;;;;10.37;nan;101136.06;5068892;28;19921;-35
2023/01/11 07:31:45;;;;;;;;;;;;;;;10.36;nan;101139.81;5068675;28;20370;-34
2023/01/11 07:34:10;;;;;;;;;;;;;;;10.39;nan;101134.78;5065603;28;20262;-35
2023/01/11 07:36:38;;;;;;;;;;;;;;;10.43;nan;101135.97;5067640;28;19917;-34
2023/01/11 07:39:04;;;;;;;;;;;;;;;10.40;nan;101133.72;5068535;28;20408;-34
2023/01/11 07:44:13;;;;;;;;;;;;;;;10.43;nan;101130.59;5066748;28;20280;-34
2023/01/11 07:46:38;;;;;;;;;;;;;;;10.47;nan;101141.66;5068262;28;19920;-34
2023/01/11 07:49:03;;;;;;;;;;;;;;;10.49;nan;101137.69;5067681;28;19995;-35
2023/01/11 07:51:29;;;;;;;;;;;;;;;10.46;nan;101134.66;5068075;28;19959;-34
2023/01/11 07:53:54;;;;;;;;;;;;;;;10.48;nan;101133.38;5065044;28;19921;-34
2023/01/11 07:56:19;;;;;;;;;;;;;;;10.50;nan;101135.81;5067442;28;20389;-34
2023/01/11 07:58:45;;;;;;;;;;;;;;;10.51;nan;101138.25;5054980;22;19929;-32
2023/01/11 08:01:10;;;;;;;;;;;;;;;10.55;nan;101131.34;5037650;28;19959;-32
2023/01/11 08:03:35;;;;;;;;;;;;;;;10.54;nan;101134.28;5049010;28;19920;-32
2023/01/11 08:06:01;;;;;;;;;;;;;;;10.56;nan;101138.34;5047590;28;20390;-32
2023/01/11 08:08:26;;;;;;;;;;;;;;;10.64;nan;101131.81;5048876;28;19959;-33
2023/01/11 08:16:20;;;;;;;;;;;;;;;10.66;nan;101120.84;5047584;28;19970;-33
2023/01/11 08:18:45;;;;;;;;;;;;;;;10.70;nan;101114.75;5042102;28;19920;-32
2023/01/11 08:21:11;;;;;;;;;;;;;;;10.69;nan;101126.53;5045749;28;19925;-33
2023/01/11 08:23:36;;;;;;;;;;;;;;;10.74;nan;101118.59;5046606;28;19913;-32
2023/01/11 08:26:01;;;;;;;;;;;;;;;10.81;nan;101121.94;5045784;28;20324;-32
2023/01/11 08:28:27;;;;;;;;;;;;;;;10.76;nan;101111.09;5043159;28;20003;-33
2023/01/11 08:30:52;;;;;;;;;;;;;;;10.78;nan;101124.28;5048406;28;19913;-33
2023/01/11 08:33:17;;;;;;;;;;;;;;;10.80;nan;101114.97;5046231;28;20015;-33
2023/01/11 08:35:43;;;;;;;;;;;;;;;10.83;nan;101110.97;5046943;28;19913;-32
2023/01/11 08:38:08;;;;;;;;;;;;;;;10.86;nan;101105.13;5047663;28;20282;-33
2023/01/11 08:40:34;;;;;;;;;;;;;;;10.89;nan;101107.31;5049054;28;20004;-32
2023/01/11 08:42:59;;;;;;;;;;;;;;;10.92;nan;101106.84;5046687;28;20425;-32
2023/01/11 08:45:25;;;;;;;;;;;;;;;10.94;nan;101102.03;5047820;28;19986;-32
2023/01/11 08:47:51;;;;;;;;;;;;;;;10.97;nan;101104.28;5046923;28;19970;-32
2023/01/11 08:50:17;;;;;;;;;;;;;;;10.94;nan;101109.28;5048803;28;20356;-33
2023/01/11 08:52:42;;;;;;;;;;;;;;;10.94;nan;101096.69;5049203;28;20282;-33
2023/01/11 08:55:08;;;;;;;;;;;;;;;10.97;nan;101100.78;5046308;28;19920;-33
2023/01/11 08:57:35;;;;;;;;;;;;;;;10.94;nan;101099.38;5046786;28;19916;-32
2023/01/11 09:00:01;;;;;;;;;;;;;;;10.99;nan;101095.97;5045869;28;19925;-32
2023/01/11 09:02:26;;;;;;;;;;;;;;;11.01;nan;101104.59;5046514;28;21827;-33
2023/01/11 09:04:52;;;;;;;;;;;;;;;10.99;nan;101094.13;5045726;28;20057;-32
2023/01/11 09:07:17;;;;;;;;;;;;;;;11.02;nan;101112.41;5047254;28;19967;-33
2023/01/11 09:09:43;;;;;;;;;;;;;;;10.98;nan;101103.22;5046376;28;19925;-33
2023/01/11 09:12:08;;;;;;;;;;;;;;;11.01;nan;101105.41;5047346;28;20424;-33
2023/01/11 09:14:33;;;;;;;;;;;;;;;11.03;nan;101103.28;5046366;28;19916;-32
2023/01/11 09:16:59;;;;;;;;;;;;;;;11.05;nan;101098.50;5045180;28;19916;-33
2023/01/11 09:19:24;;;;;;;;;;;;;;;11.09;nan;101104.19;5046887;28;19916;-33
2023/01/11 09:21:50;;;;;;;;;;;;;;;11.09;nan;101094.25;5046725;28;19928;-32
2023/01/11 09:24:16;;;;;;;;;;;;;;;11.11;nan;101091.34;5046966;28;19925;-32
2023/01/11 09:26:42;;;;;;;;;;;;;;;11.18;nan;101108.09;5046342;28;19978;-32
2023/01/11 09:29:08;;;;;;;;;;;;;;;11.15;nan;101101.38;5046008;28;19925;-32
2023/01/11 09:31:33;;;;;;;;;;;;;;;11.22;nan;101085.09;5047783;28;19964;-32
2023/01/11 09:33:58;;;;;;;;;;;;;;;11.17;nan;101085.03;5049692;28;19924;-33
2023/01/11 09:36:26;;;;;;;;;;;;;;;11.17;nan;101088.53;5047774;28;20275;-33
2023/01/11 09:38:55;;;;;;;;;;;;;;;11.24;nan;101087.53;5045435;28;19925;-33
2023/01/11 09:41:32;;;;;;;;;;;;;;;11.28;nan;101077.94;5048684;28;19927;-33
2023/01/11 09:44:05;;;;;;;;;;;;;;;11.29;nan;101085.75;5046136;28;19939;-33
2023/01/11 09:46:31;;;;;;;;;;;;;;;11.31;nan;101088.16;5042311;28;19917;-33
2023/01/11 09:48:58;;;;;;;;;;;;;;;11.38;nan;101075.41;5045092;28;20420;-33
2023/01/11 09:51:28;;;;;;;;;;;;;;;11.39;nan;101071.69;5047936;28;19916;-33
2023/01/11 09:53:56;;;;;;;;;;;;;;;11.40;nan;101068.75;5045729;28;20007;-33
2023/01/11 09:56:24;;;;;;;;;;;;;;;11.44;nan;101071.75;5046912;28;19924;-33
2023/01/11 09:59:08;;;;;;;;;;;;;;;11.47;nan;101069.38;5045381;28;20036;-33
2023/01/11 10:01:52;;;;;;;;;;;;;;;11.53;nan;101067.59;5043534;28;19928;-33
2023/01/11 10:04:31;;;;;;;;;;;;;;;11.55;nan;101056.63;5045962;28;19920;-33
2023/01/11 10:07:20;;;;;;;;;;;;;;;11.57;nan;101052.63;5045241;28;19936;-33
2023/01/11 10:09:51;;;;;;;;;;;;;;;11.64;nan;101063.19;5045280;28;19917;-32
2023/01/11 10:12:29;;;;;;;;;;;;;;;11.67;nan;101062.69;5047282;28;19928;-32
2023/01/11 10:14:55;;;;;;;;;;;;;;;11.60;nan;101052.13;5045217;28;19971;-33
2023/01/11 10:17:40;;;;;;;;;;;;;;;11.71;nan;101056.59;5047305;28;19927;-33
2023/01/11 10:20:11;;;;;;;;;;;;;;;11.71;nan;101048.53;5046077;28;20618;-33
2023/01/11 10:22:40;;;;;;;;;;;;;;;11.71;nan;101045.03;5047220;28;19920;-32
2023/01/11 10:25:14;;;;;;;;;;;;;;;11.70;nan;101046.09;5045280;28;19931;-32
2023/01/11 10:27:47;;;;;;;;;;;;;;;11.76;nan;101042.41;5046547;28;19917;-33
2023/01/11 10:33:33;;;;;;;;;;;;;;;11.89;nan;101030.53;5047475;28;20024;-32
2023/01/11 10:37:22;;;;;;;;;;;;;;;11.97;nan;101038.16;5049043;28;20010;-32
2023/01/11 10:39:26;;;;;;;;;;;;;;;11.95;nan;101022.28;5032312;28;19921;-32
2023/01/11 10:42:00;;;;;;;;;;;;;;;12.03;nan;101031.78;5049217;28;19978;-32
2023/01/11 10:44:36;;;;;;;;;;;;;;;12.07;nan;101022.16;5047346;28;19917;-32
2023/01/11 10:47:02;;;;;;;;;;;;;;;12.08;nan;101024.59;5049759;28;19924;-32
2023/01/11 10:49:32;;;;;;;;;;;;;;;12.16;nan;101017.97;5049201;28;19917;-32
2023/01/11 10:52:02;;;;;;;;;;;;;;;12.19;nan;101025.50;5045621;28;20375;-32
2023/01/11 10:54:32;;;;;;;;;;;;;;;12.24;nan;101016.72;5049287;28;19916;-33
2023/01/11 10:57:16;;;;;;;;;;;;;;;12.22;nan;101014.28;5050887;28;21585;-33
2023/01/11 10:59:45;;;;;;;;;;;;;;;12.29;nan;101012.19;5052649;28;20125;-33
2023/01/11 11:02:13;;;;;;;;;;;;;;;12.28;nan;101007.88;5052170;28;20309;-33
2023/01/11 11:04:51;;;;;;;;;;;;;;;12.22;nan;101008.91;5052912;28;19916;-33
2023/01/11 11:07:33;;;;;;;;;;;;;;;12.32;nan;101008.19;5052075;28;19921;-33
2023/01/11 11:10:17;;;;;;;;;;;;;;;12.35;nan;101003.13;5050703;28;20329;-33
2023/01/11 11:12:58;;;;;;;;;;;;;;;12.43;nan;100998.38;5048494;28;20255;-33
2023/01/11 11:15:26;;;;;;;;;;;;;;;12.46;nan;100993.28;5045962;28;19917;-33
2023/01/11 11:17:52;;;;;;;;;;;;;;;12.51;nan;100992.53;5048574;28;19925;-33
2023/01/11 11:20:22;;;;;;;;;;;;;;;12.59;nan;100984.00;5050325;28;20008;-33
2023/01/11 11:22:49;;;;;;;;;;;;;;;12.65;nan;100983.78;5047709;28;20397;-33
2023/01/11 11:25:17;;;;;;;;;;;;;;;12.66;nan;100981.91;5049178;28;19953;-32
2023/01/11 11:27:55;;;;;;;;;;;;;;;12.68;nan;100988.66;5049210;28;19917;-32
2023/01/11 11:30:25;;;;;;;;;;;;;;;12.68;nan;100985.97;5047123;28;20406;-32
2023/01/11 11:32:57;;;;;;;;;;;;;;;12.73;nan;100979.81;5048797;28;20439;-32
2023/01/11 11:35:29;;;;;;;;;;;;;;;12.72;nan;100980.88;5044493;28;19917;-33
2023/01/11 11:37:54;;;;;;;;;;;;;;;12.70;nan;100973.06;5047878;28;19917;-32
2023/01/11 11:40:40;;;;;;;;;;;;;;;12.74;nan;100970.66;5046110;28;20034;-32
2023/01/11 11:43:09;;;;;;;;;;;;;;;12.82;nan;100955.97;5047096;28;19920;-33
2023/01/11 11:45:35;;;;;;;;;;;;;;;12.83;nan;100960.25;5061477;28;19967;-32
2023/01/11 11:48:02;;;;;;;;;;;;;;;12.85;nan;100950.88;5046493;28;19929;-32
2023/01/11 11:50:27;;;;;;;;;;;;;;;12.83;nan;100950.31;5046065;28;19917;-32
2023/01/11 11:52:58;;;;;;;;;;;;;;;12.88;nan;100944.97;5048572;28;20039;-32
2023/01/11 11:55:26;;;;;;;;;;;;;;;12.87;nan;100937.16;5049954;28;19999;-33
2023/01/11 11:57:52;;;;;;;;;;;;;;;12.90;nan;100936.66;5046930;28;20020;-33
2023/01/11 12:00:20;;;;;;;;;;;;;;;12.97;nan;100938.06;5044598;28;20004;-32
2023/01/11 12:02:49;;;;;;;;;;;;;;;12.94;nan;100938.59;5048835;28;19924;-32
2023/01/11 12:05:14;;;;;;;;;;;;;;;12.98;nan;100934.28;5045902;28;20373;-32
2023/01/11 12:07:45;;;;;;;;;;;;;;;13.00;nan;100929.47;5043733;28;19956;-33
2023/01/11 12:10:20;;;;;;;;;;;;;;;13.04;nan;100928.94;5049896;28;20050;-33
2023/01/11 12:12:53;;;;;;;;;;;;;;;13.08;nan;100930.03;5048048;28;19982;-33
2023/01/11 12:15:22;;;;;;;;;;;;;;;13.12;nan;100931.16;5041661;28;19970;-33
2023/01/11 12:17:47;;;;;;;;;;;;;;;13.11;nan;100926.84;5045105;28;19921;-32
2023/01/11 12:20:32;;;;;;;;;;;;;;;13.14;nan;100929.00;5034618;28;19940;-32
2023/01/11 12:23:11;;;;;;;;;;;;;;;13.12;nan;100923.09;5041709;28;19916;-33
2023/01/11 12:25:47;;;;;;;;;;;;;;;13.07;nan;100925.72;5045951;28;20477;-33
2023/01/11 12:28:39;;;;;;;;;;;;;;;13.03;nan;100928.13;5042290;28;19921;-33
2023/01/11 12:31:13;;;;;;;;;;;;;;;13.02;nan;100929.19;5020468;28;19928;-33
2023/01/11 12:33:44;;;;;;;;;;;;;;;13.00;nan;100924.09;5042057;28;19967;-32
2023/01/11 12:36:16;;;;;;;;;;;;;;;12.99;nan;100927.03;5041083;28;19927;-32
2023/01/11 12:38:47;;;;;;;;;;;;;;;12.97;nan;100919.22;5041596;28;20536;-32
2023/01/11 12:41:12;;;;;;;;;;;;;;;12.96;nan;100925.69;5045211;28;20007;-32
2023/01/11 12:43:41;;;;;;;;;;;;;;;12.96;nan;100917.63;5040226;28;20449;-32
2023/01/11 12:46:06;;;;;;;;;;;;;;;12.97;nan;100916.53;5042384;28;20011;-32
2023/01/11 12:48:35;;;;;;;;;;;;;;;12.99;nan;100909.03;5038706;28;19978;-32
2023/01/11 12:51:20;;;;;;;;;;;;;;;12.98;nan;100903.91;5039458;28;20410;-33
2023/01/11 12:53:46;;;;;;;;;;;;;;;13.02;nan;100905.00;5039977;28;20349;-33
2023/01/11 12:56:20;;;;;;;;;;;;;;;12.96;nan;100904.16;5044821;28;20011;-32
2023/01/11 12:58:50;;;;;;;;;;;;;;;12.94;nan;100898.25;5035990;28;20373;-33
2023/01/11 13:01:28;;;;;;;;;;;;;;;12.97;nan;100892.34;5043975;28;20345;-32
2023/01/11 13:04:01;;;;;;;;;;;;;;;12.97;nan;100886.97;5042563;28;19916;-32
2023/01/11 13:06:26;;;;;;;;;;;;;;;12.99;nan;100879.44;5044193;28;20016;-32
2023/01/11 13:08:55;;;;;;;;;;;;;;;13.04;nan;100881.34;5042898;28;20462;-33
2023/01/11 13:11:35;;;;;;;;;;;;;;;13.03;nan;100879.72;5043896;28;20122;-32
2023/01/11 13:14:10;;;;;;;;;;;;;;;13.01;nan;100877.28;5041419;28;20297;-32
2023/01/11 13:16:46;;;;;;;;;;;;;;;13.05;nan;100882.94;5041508;28;19920;-32
2023/01/11 13:19:17;;;;;;;;;;;;;;;13.09;nan;100881.34;5038434;28;20348;-32
2023/01/11 13:21:52;;;;;;;;;;;;;;;13.14;nan;100881.41;5038921;28;19928;-32
2023/01/11 13:24:25;;;;;;;;;;;;;;;13.13;nan;100878.97;5041378;28;19921;-32
2023/01/11 13:26:51;;;;;;;;;;;;;;;13.14;nan;100875.22;5040931;28;20152;-32
2023/01/11 13:29:24;;;;;;;;;;;;;;;13.15;nan;100877.63;5040853;28;19920;-32
2023/01/11 13:31:51;;;;;;;;;;;;;;;13.17;nan;100869.31;5041142;28;21145;-33
2023/01/11 13:34:16;;;;;;;;;;;;;;;13.16;nan;100873.06;5041583;28;19921;-33
2023/01/11 13:36:44;;;;;;;;;;;;;;;13.14;nan;100873.31;5038442;28;19925;-32
2023/01/11 13:39:12;;;;;;;;;;;;;;;13.15;nan;100879.53;5033464;28;19952;-33